Time;durP1;ratioP1;P1;durP2;ratioP2;P2;SDS_P1;SDS_P2;PMS_P1;PMS_P2;Temp;Humidity;BMP_temperature;BMP_pressure;BME280_temperature;BME280_humidity;BME280_pressure;Samples;Min_cycle;Max_cycle;Signal;HPM_P1;HPM_P2
2022/03/23 00:00:36;;;;;;;19.98;14.52;;;;;;;5.79;55.94;101718.13;5053122;28;20057;-48
2022/03/23 00:03:04;;;;;;;18.17;13.60;;;;;;;5.74;56.14;101718.06;5052378;28;20488;-50
2022/03/23 00:05:32;;;;;;;18.50;13.75;;;;;;;5.73;56.29;101715.53;5052707;28;20049;-48
2022/03/23 00:08:01;;;;;;;18.15;14.18;;;;;;;5.69;56.90;101717.97;5052449;28;20492;-50
2022/03/23 00:10:30;;;;;;;19.92;14.52;;;;;;;5.69;56.51;101712.44;5052607;28;20049;-48
2022/03/23 00:12:58;;;;;;;18.35;13.98;;;;;;;5.66;56.14;101722.06;5051713;28;20049;-48
2022/03/23 00:15:29;;;;;;;18.13;14.23;;;;;;;5.66;56.34;101719.31;5052683;28;20049;-49
2022/03/23 00:17:56;;;;;;;21.90;14.82;;;;;;;5.63;56.42;101719.00;5052571;28;20049;-49
2022/03/23 00:20:28;;;;;;;18.35;14.18;;;;;;;5.57;57.16;101726.34;5052187;28;20052;-49
2022/03/23 00:22:55;;;;;;;19.35;14.38;;;;;;;5.54;56.66;101724.06;5051998;28;20470;-49
2022/03/23 00:25:23;;;;;;;18.88;14.23;;;;;;;5.52;56.81;101726.25;5051890;28;20056;-52
2022/03/23 00:27:51;;;;;;;19.73;14.48;;;;;;;5.51;56.71;101729.28;5051149;28;20053;-48
2022/03/23 00:30:20;;;;;;;22.50;14.68;;;;;;;5.46;56.68;101721.75;5051798;28;20045;-51
2022/03/23 00:32:48;;;;;;;19.88;14.85;;;;;;;5.43;56.91;101717.53;5051761;28;20055;-51
2022/03/23 00:35:16;;;;;;;23.63;15.45;;;;;;;5.40;57.00;101717.22;5051746;28;20060;-52
2022/03/23 00:37:44;;;;;;;18.30;14.32;;;;;;;5.40;57.13;101728.25;5051515;28;20462;-52
2022/03/23 00:40:14;;;;;;;20.85;14.57;;;;;;;5.37;56.79;101725.97;5052124;28;20059;-52
2022/03/23 00:42:42;;;;;;;22.60;14.93;;;;;;;5.38;56.63;101724.91;5050359;28;20061;-50
2022/03/23 00:45:11;;;;;;;22.40;15.90;;;;;;;5.31;57.24;101725.03;5052314;28;20458;-48
2022/03/23 00:47:39;;;;;;;22.77;16.23;;;;;;;5.28;57.69;101726.38;5051760;28;20057;-48
2022/03/23 00:50:09;;;;;;;20.85;14.77;;;;;;;5.28;57.34;101731.91;5051891;28;20053;-49
2022/03/23 00:52:37;;;;;;;18.52;14.80;;;;;;;5.26;57.63;101727.72;5051840;28;20053;-48
2022/03/23 00:55:08;;;;;;;19.98;15.77;;;;;;;5.24;57.49;101722.44;5051960;28;20052;-49
2022/03/23 00:57:35;;;;;;;19.83;15.63;;;;;;;5.24;57.24;101725.19;5050781;28;20059;-48
2022/03/23 01:00:06;;;;;;;18.67;13.98;;;;;;;5.20;57.40;101724.00;5050712;28;20052;-48
2022/03/23 01:02:35;;;;;;;23.40;15.77;;;;;;;5.14;57.97;101724.19;5051594;28;20056;-48
2022/03/23 01:05:03;;;;;;;20.85;14.80;;;;;;;5.09;58.04;101720.22;5051775;28;20456;-52
2022/03/23 01:07:32;;;;;;;19.90;15.02;;;;;;;5.09;57.97;101711.13;5051791;28;20057;-49
2022/03/23 01:10:00;;;;;;;20.67;15.93;;;;;;;5.08;57.88;101718.56;5051514;28;20057;-50
2022/03/23 01:12:27;;;;;;;19.73;15.38;;;;;;;5.03;58.32;101723.13;5051140;28;20056;-49
2022/03/23 01:14:55;;;;;;;18.45;14.18;;;;;;;5.03;58.24;101725.91;5050219;28;20056;-51
2022/03/23 01:17:23;;;;;;;25.50;14.23;;;;;;;5.03;58.20;101723.13;5051780;28;20477;-49
2022/03/23 01:19:50;;;;;;;17.48;12.88;;;;;;;5.01;57.84;101717.84;5051843;28;20057;-51
2022/03/23 01:22:20;;;;;;;19.70;14.07;;;;;;;5.00;58.48;101712.59;5051308;28;20120;-51
2022/03/23 01:24:49;;;;;;;19.80;14.65;;;;;;;4.96;58.32;101714.19;5051448;28;20053;-49
2022/03/23 01:27:18;;;;;;;16.85;13.55;;;;;;;4.95;58.33;101718.00;5050941;28;20053;-50
2022/03/23 01:29:48;;;;;;;21.05;15.88;;;;;;;4.93;58.43;101706.38;5051560;28;20064;-50
2022/03/23 01:32:15;;;;;;;20.92;15.27;;;;;;;4.90;58.84;101712.41;5051781;28;20053;-49
2022/03/23 01:34:43;;;;;;;20.98;14.68;;;;;;;4.90;58.13;101717.94;5051296;28;20060;-50
2022/03/23 01:37:10;;;;;;;19.80;14.35;;;;;;;4.86;58.39;101709.28;5051221;28;20049;-48
2022/03/23 01:39:38;;;;;;;19.13;14.50;;;;;;;4.84;58.67;101708.69;5051524;28;20060;-48
2022/03/23 01:42:07;;;;;;;21.30;14.70;;;;;;;4.83;58.34;101712.53;5049886;28;20045;-49
2022/03/23 01:44:34;;;;;;;19.45;14.43;;;;;;;4.79;58.39;101706.66;5051736;28;20057;-48
2022/03/23 01:47:06;;;;;;;20.70;14.50;;;;;;;4.77;58.21;101697.81;5050939;28;20049;-51
2022/03/23 01:49:34;;;;;;;20.23;14.82;;;;;;;4.74;59.12;101698.28;5051072;28;20421;-49
2022/03/23 01:52:02;;;;;;;21.40;16.17;;;;;;;4.73;59.39;101701.31;5051107;28;20060;-49
2022/03/23 01:54:30;;;;;;;21.67;15.45;;;;;;;4.72;58.90;101705.13;5053411;28;20056;-49
2022/03/23 01:56:58;;;;;;;24.63;15.40;;;;;;;4.70;59.42;101708.13;5054044;28;20057;-48
2022/03/23 01:59:27;;;;;;;20.40;14.70;;;;;;;4.70;58.94;101701.78;5054542;28;20060;-48
2022/03/23 02:01:55;;;;;;;19.40;14.68;;;;;;;4.71;58.83;101703.47;5054640;28;20053;-48
2022/03/23 02:04:23;;;;;;;22.73;15.57;;;;;;;4.68;58.72;101704.78;5055188;28;20056;-49
2022/03/23 02:06:50;;;;;;;20.38;13.85;;;;;;;4.62;59.22;101697.47;5054699;28;20053;-50
2022/03/23 02:09:18;;;;;;;21.30;15.10;;;;;;;4.62;58.85;101694.72;5054030;28;20060;-48
2022/03/23 02:11:47;;;;;;;20.77;14.45;;;;;;;4.61;58.69;101691.13;5054150;28;20049;-48
2022/03/23 02:14:17;;;;;;;18.67;14.47;;;;;;;4.57;58.85;101691.84;5055240;28;20049;-47
2022/03/23 02:16:47;;;;;;;20.00;14.93;;;;;;;4.53;59.67;101690.66;5054446;28;20049;-47
2022/03/23 02:19:15;;;;;;;22.13;14.70;;;;;;;4.53;59.56;101696.19;5054515;28;20057;-48
2022/03/23 02:21:44;;;;;;;20.35;14.20;;;;;;;4.47;59.38;101698.84;5054317;28;20068;-49
2022/03/23 02:24:13;;;;;;;20.00;15.77;;;;;;;4.46;59.68;101686.13;5054413;28;20045;-48
2022/03/23 02:26:41;;;;;;;23.98;15.02;;;;;;;4.39;60.01;101685.44;5053270;28;20059;-49
2022/03/23 02:29:14;;;;;;;22.23;14.48;;;;;;;4.38;60.02;101693.94;5054682;28;20128;-54
2022/03/23 02:31:42;;;;;;;20.30;14.32;;;;;;;4.36;60.02;101694.19;5054550;28;20057;-49
2022/03/23 02:34:09;;;;;;;18.98;14.52;;;;;;;4.34;60.16;101690.81;5054115;28;20067;-50
2022/03/23 02:36:36;;;;;;;19.67;14.32;;;;;;;4.37;60.01;101690.34;5054165;28;20413;-51
2022/03/23 02:39:05;;;;;;;20.55;14.30;;;;;;;4.36;60.07;101685.91;5054382;28;20056;-51
2022/03/23 02:41:33;;;;;;;20.97;14.43;;;;;;;4.36;59.82;101687.84;5053589;28;20061;-49
2022/03/23 02:44:01;;;;;;;19.60;13.68;;;;;;;4.33;60.44;101689.16;5054000;28;20498;-48
2022/03/23 02:46:35;;;;;;;18.75;14.25;;;;;;;4.32;60.02;101690.22;5054182;28;20440;-49
2022/03/23 02:49:03;;;;;;;15.98;12.95;;;;;;;4.30;59.97;101678.59;5053914;28;20049;-50
2022/03/23 02:51:34;;;;;;;20.60;14.48;;;;;;;4.26;60.66;101682.91;5054153;28;20410;-48
2022/03/23 03:02:36;;;;;;;22.98;15.00;;;;;;;4.09;60.45;101691.09;5059246;28;20056;-48
2022/03/23 03:05:04;;;;;;;21.40;13.93;;;;;;;4.11;60.92;101688.09;5052583;28;20067;-48
2022/03/23 03:08:44;;;;;;;18.38;13.55;;;;;;;4.10;60.70;101689.19;5053782;28;20060;-48
2022/03/23 03:10:20;;;;;;;19.23;13.70;;;;;;;4.10;61.15;101694.72;5053313;28;20072;-48
2022/03/23 03:12:50;;;;;;;19.52;14.02;;;;;;;4.07;61.17;101688.59;5052784;28;20049;-49
2022/03/23 03:15:20;;;;;;;18.58;14.27;;;;;;;4.07;60.68;101687.75;5053680;28;20057;-49
2022/03/23 03:17:48;;;;;;;19.73;13.82;;;;;;;4.04;61.16;101694.56;5053760;28;20049;-48
2022/03/23 03:20:16;;;;;;;19.95;13.95;;;;;;;4.03;60.69;101701.19;5052899;28;20057;-50
2022/03/23 03:22:45;;;;;;;21.33;14.93;;;;;;;4.00;61.43;101698.91;5053363;28;20064;-51
2022/03/23 03:25:14;;;;;;;18.73;11.95;;;;;;;3.98;60.98;101697.47;5053286;28;20776;-51
2022/03/23 03:27:42;;;;;;;15.82;12.00;;;;;;;3.95;60.54;101696.03;5052379;28;20048;-49
2022/03/23 03:30:14;;;;;;;18.73;13.77;;;;;;;3.93;61.14;101700.94;5053117;28;20409;-50
2022/03/23 03:36:04;;;;;;;18.52;13.32;;;;;;;3.85;60.96;101690.28;5052938;28;20496;-51
2022/03/23 03:38:32;;;;;;;16.90;12.95;;;;;;;3.83;61.57;101698.78;5053094;28;20410;-49
2022/03/23 03:40:59;;;;;;;18.58;13.38;;;;;;;3.81;61.05;101694.59;5052849;28;20053;-48
2022/03/23 03:43:27;;;;;;;16.27;12.50;;;;;;;3.81;61.35;101694.59;5052235;28;20056;-48
2022/03/23 03:45:55;;;;;;;18.80;13.25;;;;;;;3.79;61.17;101697.56;5052913;28;20049;-50
2022/03/23 03:48:23;;;;;;;17.95;12.98;;;;;;;3.77;61.24;101698.91;5052877;28;20057;-49
2022/03/23 03:50:51;;;;;;;19.10;13.70;;;;;;;3.77;61.64;101698.91;5052939;28;20057;-49
2022/03/23 03:53:19;;;;;;;17.98;12.98;;;;;;;3.74;61.67;101699.34;5052365;28;20473;-51
2022/03/23 03:55:46;;;;;;;18.45;13.68;;;;;;;3.71;62.19;101700.69;5052822;28;20053;-48
2022/03/23 03:58:17;;;;;;;18.33;12.90;;;;;;;3.73;61.72;101700.44;5051456;28;20528;-51
2022/03/23 04:00:45;;;;;;;17.33;12.95;;;;;;;3.72;61.26;101705.13;5052929;28;20060;-48
2022/03/23 04:03:14;;;;;;;18.40;13.77;;;;;;;3.70;61.70;101704.53;5052444;28;20052;-49
2022/03/23 04:05:41;;;;;;;19.08;14.02;;;;;;;3.67;61.70;101705.00;5053190;28;20053;-50
2022/03/23 04:08:09;;;;;;;19.08;13.80;;;;;;;3.66;62.15;101709.66;5052034;28;20049;-52
2022/03/23 04:10:38;;;;;;;18.95;13.52;;;;;;;3.59;62.34;101708.09;5052365;28;20045;-51
2022/03/23 04:13:08;;;;;;;17.98;14.18;;;;;;;3.60;62.15;101707.88;5051339;28;20434;-48
2022/03/23 04:15:35;;;;;;;18.33;13.35;;;;;;;3.61;62.25;101712.31;5052461;28;20056;-49
2022/03/23 04:18:04;;;;;;;17.95;13.60;;;;;;;3.57;62.38;101711.09;5051941;28;20056;-50
2022/03/23 04:20:33;;;;;;;17.02;12.63;;;;;;;3.60;61.39;101715.28;5051838;28;20056;-49
2022/03/23 04:23:00;;;;;;;19.10;13.93;;;;;;;3.62;61.48;101713.97;5052415;28;20493;-51
2022/03/23 04:25:28;;;;;;;20.13;13.93;;;;;;;3.56;61.49;101714.91;5051788;28;20044;-50
2022/03/23 04:27:58;;;;;;;23.08;14.27;;;;;;;3.55;62.39;101718.78;5051510;28;20057;-48
2022/03/23 04:30:30;;;;;;;17.17;12.23;;;;;;;3.54;62.31;101717.06;5051708;28;20060;-51
2022/03/23 04:32:57;;;;;;;16.83;12.80;;;;;;;3.50;61.74;101717.78;5051912;28;20469;-51
2022/03/23 04:35:25;;;;;;;17.40;13.02;;;;;;;3.48;61.98;101725.44;5051665;28;20045;-48
2022/03/23 04:37:54;;;;;;;22.02;12.65;;;;;;;3.44;61.64;101733.34;5052400;28;20053;-49
2022/03/23 04:40:24;;;;;;;23.55;12.48;;;;;;;3.44;62.10;101736.09;5051954;28;20057;-48
2022/03/23 04:42:52;;;;;;;17.17;12.88;;;;;;;3.43;62.33;101740.75;5050926;28;20048;-51
2022/03/23 04:45:23;;;;;;;18.63;13.00;;;;;;;3.42;62.68;101738.25;5051776;28;20053;-51
2022/03/23 04:47:50;;;;;;;16.80;12.35;;;;;;;3.41;62.32;101742.09;5051988;28;20106;-48
2022/03/23 04:50:18;;;;;;;18.00;12.25;;;;;;;3.40;62.08;101737.63;5051382;28;20048;-50
2022/03/23 04:52:48;;;;;;;16.27;11.90;;;;;;;3.38;61.99;101745.28;5051780;28;20481;-49
2022/03/23 04:55:16;;;;;;;16.20;12.50;;;;;;;3.37;62.29;101738.13;5051293;28;20060;-50
2022/03/23 04:57:44;;;;;;;18.25;13.10;;;;;;;3.33;62.11;101743.25;5050847;28;20053;-49
2022/03/23 05:00:15;;;;;;;19.73;13.30;;;;;;;3.32;62.90;101744.34;5051527;28;20108;-49
2022/03/23 05:02:44;;;;;;;18.73;12.80;;;;;;;3.34;62.57;101739.44;5051310;28;20470;-49
2022/03/23 05:05:12;;;;;;;16.33;11.80;;;;;;;3.36;62.84;101742.78;5051386;28;20056;-49
2022/03/23 05:07:41;;;;;;;19.83;13.85;;;;;;;3.41;62.34;101740.16;5051476;28;20060;-48
2022/03/23 05:10:09;;;;;;;18.75;13.43;;;;;;;3.38;62.72;101751.66;5051718;28;20056;-48
2022/03/23 05:12:41;;;;;;;18.80;12.85;;;;;;;3.41;61.86;101742.09;5050512;28;20057;-50
2022/03/23 05:15:09;;;;;;;18.70;13.55;;;;;;;3.37;62.60;101749.97;5050981;28;20052;-48
2022/03/23 05:17:37;;;;;;;18.65;12.93;;;;;;;3.40;62.70;101748.66;5051245;28;20053;-50
2022/03/23 05:20:07;;;;;;;20.75;13.70;;;;;;;3.42;62.11;101752.88;5050837;28;20053;-49
2022/03/23 05:22:34;;;;;;;19.95;13.98;;;;;;;3.44;62.35;101749.84;5051254;28;20053;-49
2022/03/23 05:25:03;;;;;;;16.67;12.70;;;;;;;3.48;62.56;101756.56;5051275;28;20072;-50
2022/03/23 05:27:33;;;;;;;19.93;13.70;;;;;;;3.51;62.38;101753.38;5051006;28;20096;-48
2022/03/23 05:30:03;;;;;;;18.00;14.10;;;;;;;3.51;61.56;101750.63;5054555;28;20057;-50
2022/03/23 05:32:30;;;;;;;;;;;;;;;3.44;62.35;101752.63;5055777;28;20056;-48
2022/03/23 05:34:57;;;;;;;21.48;15.00;;;;;;;3.44;61.54;101747.09;5055342;28;19920;-49
2022/03/23 05:37:28;;;;;;;19.25;13.02;;;;;;;3.36;62.09;101750.19;5054684;28;20053;-48
2022/03/23 05:39:55;;;;;;;20.25;14.85;;;;;;;3.38;62.33;101751.66;5055141;28;20052;-48
2022/03/23 05:42:23;;;;;;;18.85;14.00;;;;;;;3.40;61.70;101748.66;5054433;28;20053;-50
2022/03/23 05:44:50;;;;;;;14.50;11.52;;;;;;;3.47;61.71;101754.09;5054963;28;20497;-49
2022/03/23 05:47:22;;;;;;;18.25;13.10;;;;;;;3.49;61.11;101752.75;5054517;28;20072;-50
2022/03/23 05:49:49;;;;;;;19.80;13.15;;;;;;;3.45;61.35;101757.06;5055143;28;20056;-48
2022/03/23 05:52:17;;;;;;;19.13;14.70;;;;;;;3.41;61.62;101756.69;5054470;28;20083;-50
2022/03/23 05:54:44;;;;;;;16.65;13.73;;;;;;;3.43;61.82;101756.47;5055020;28;20049;-47
2022/03/23 05:57:15;;;;;;;19.15;13.95;;;;;;;3.45;62.00;101759.81;5049453;28;20049;-52
2022/03/23 05:59:42;;;;;;;22.38;14.73;;;;;;;3.46;61.87;101761.47;5052648;28;20060;-49
2022/03/23 06:02:09;;;;;;;20.20;14.18;;;;;;;3.52;61.83;101762.47;5054196;28;20045;-52
2022/03/23 06:04:38;;;;;;;19.73;14.27;;;;;;;3.55;62.40;101767.50;5038124;28;20064;-51
2022/03/23 06:07:06;;;;;;;17.77;12.88;;;;;;;3.66;61.47;101753.75;5042576;28;20364;-50
2022/03/23 06:09:33;;;;;;;18.92;12.77;;;;;;;3.68;61.71;101748.00;5034662;28;20056;-48
2022/03/23 06:12:01;;;;;;;18.23;14.07;;;;;;;3.77;61.29;101759.53;5048475;28;20049;-51
2022/03/23 06:14:29;;;;;;;21.00;13.98;;;;;;;3.82;60.97;101756.88;5035514;28;20418;-52
2022/03/23 06:16:56;;;;;;;17.98;13.35;;;;;;;3.88;60.92;101755.94;5035089;28;20053;-49
2022/03/23 06:19:23;;;;;;;21.35;14.20;;;;;;;3.89;61.30;101762.31;5034479;28;20683;-50
2022/03/23 06:21:52;;;;;;;20.42;14.32;;;;;;;3.92;61.53;101768.16;5040419;28;20508;-49
2022/03/23 06:24:19;;;;;;;19.30;14.57;;;;;;;3.99;61.16;101768.91;5039650;28;20060;-49
2022/03/23 06:26:47;;;;;;;18.05;13.90;;;;;;;4.09;61.04;101773.81;5049490;28;20052;-50
2022/03/23 06:29:15;;;;;;;21.83;14.20;;;;;;;4.21;61.15;101776.59;5050984;28;20059;-49
2022/03/23 06:31:42;;;;;;;20.10;14.32;;;;;;;4.37;60.62;101778.63;5037113;28;20056;-49
2022/03/23 06:34:10;;;;;;;21.85;14.07;;;;;;;4.55;60.71;101777.63;5041494;28;20053;-49
2022/03/23 06:36:38;;;;;;;16.98;12.57;;;;;;;4.81;59.76;101778.22;5044159;28;20049;-48
2022/03/23 06:39:07;;;;;;;19.42;12.93;;;;;;;5.04;58.98;101774.50;5050036;28;20051;-49
2022/03/23 06:41:34;;;;;;;18.40;13.20;;;;;;;5.15;58.99;101779.16;5052154;28;20045;-51
2022/03/23 06:44:02;;;;;;;19.13;14.02;;;;;;;5.23;58.89;101776.03;5035189;28;20053;-51
2022/03/23 06:46:29;;;;;;;19.20;13.07;;;;;;;5.36;58.80;101783.16;5035300;28;20056;-52
2022/03/23 06:48:59;;;;;;;21.08;13.85;;;;;;;5.45;58.32;101778.91;5034099;28;20390;-55
2022/03/23 06:51:26;;;;;;;15.20;12.50;;;;;;;5.55;58.02;101781.03;5044551;28;20061;-50
2022/03/23 06:53:53;;;;;;;21.88;15.23;;;;;;;5.69;57.89;101779.63;5044494;28;20064;-52
2022/03/23 06:56:22;;;;;;;18.25;13.15;;;;;;;5.92;57.06;101775.03;5050806;28;20053;-53
2022/03/23 06:58:50;;;;;;;17.83;13.18;;;;;;;6.23;56.43;101773.63;5052618;28;20075;-51
2022/03/23 07:01:17;;;;;;;18.45;13.48;;;;;;;6.89;55.51;101778.44;5044021;28;20045;-51
2022/03/23 07:03:44;;;;;;;18.58;13.05;;;;;;;7.83;53.10;101768.03;5052956;28;20049;-52
2022/03/23 07:06:12;;;;;;;16.88;13.40;;;;;;;8.86;50.56;101773.22;5047894;28;20057;-50
2022/03/23 07:11:25;;;;;;;18.17;13.18;;;;;;;11.15;45.16;101767.06;5053296;28;20068;-50
2022/03/23 07:13:52;;;;;;;15.30;13.10;;;;;;;12.19;42.94;101760.47;5050320;28;20044;-49
2022/03/23 07:16:20;;;;;;;18.25;13.90;;;;;;;13.36;40.40;101761.09;5045650;28;20076;-50
2022/03/23 07:18:47;;;;;;;18.77;12.85;;;;;;;14.36;38.27;101760.03;5037798;28;20051;-49
2022/03/23 07:21:15;;;;;;;15.30;12.52;;;;;;;15.35;36.46;101755.78;5045905;28;20060;-50
2022/03/23 07:23:42;;;;;;;15.63;12.32;;;;;;;16.29;34.55;101760.84;5045355;28;20053;-51
2022/03/23 07:26:09;;;;;;;16.40;13.25;;;;;;;17.23;32.36;101756.75;5036041;28;20052;-50
2022/03/23 07:28:41;;;;;;;16.98;13.60;;;;;;;18.15;30.60;101752.97;5049278;28;20056;-52
2022/03/23 07:31:09;;;;;;;15.20;13.55;;;;;;;18.86;29.07;101758.06;5051118;28;20057;-50
2022/03/23 07:33:36;;;;;;;15.32;13.73;;;;;;;19.63;28.03;101752.25;5049581;28;20474;-49
2022/03/23 07:36:05;;;;;;;17.20;14.10;;;;;;;20.51;26.68;101755.06;5037559;28;20064;-52
2022/03/23 07:38:32;;;;;;;14.85;13.15;;;;;;;21.12;25.83;101756.31;5039540;28;20081;-50
2022/03/23 07:41:00;;;;;;;15.77;13.32;;;;;;;21.63;25.08;101748.22;5052293;28;20053;-51
2022/03/23 07:43:27;;;;;;;14.27;12.88;;;;;;;22.26;23.76;101753.28;5051875;28;20490;-53
2022/03/23 07:45:56;;;;;;;15.90;14.30;;;;;;;22.82;23.59;101760.84;5049837;28;20418;-50
2022/03/23 07:48:24;;;;;;;15.32;13.73;;;;;;;23.33;22.83;101752.38;5042239;28;20050;-50
2022/03/23 07:50:51;;;;;;;15.48;13.88;;;;;;;23.88;22.34;101753.19;5046898;28;20045;-51
2022/03/23 07:53:19;;;;;;;14.48;12.98;;;;;;;24.48;21.42;101749.03;5041585;28;20049;-50
2022/03/23 07:55:46;;;;;;;14.93;13.32;;;;;;;24.77;21.14;101752.44;5040283;28;20045;-51
2022/03/23 07:58:14;;;;;;;15.25;13.20;;;;;;;25.12;20.28;101753.00;5039586;28;20053;-48
2022/03/23 08:00:43;;;;;;;15.05;13.45;;;;;;;25.53;20.03;101743.84;5037737;28;20068;-52
2022/03/23 08:03:12;;;;;;;14.80;13.30;;;;;;;25.83;20.11;101746.69;5041649;28;20425;-54
2022/03/23 08:05:39;;;;;;;14.07;12.57;;;;;;;26.19;19.39;101752.84;5038792;28;20502;-52
2022/03/23 08:08:09;;;;;;;14.27;12.80;;;;;;;26.66;19.03;101745.56;5038739;28;20059;-54
2022/03/23 08:10:40;;;;;;;14.88;13.27;;;;;;;27.11;18.64;101749.22;5037555;28;20048;-50
2022/03/23 08:13:08;;;;;;;14.73;13.23;;;;;;;27.47;18.04;101752.34;5042455;28;20056;-52
2022/03/23 08:15:36;;;;;;;15.07;12.43;;;;;;;27.90;17.42;101752.53;5046144;28;20053;-52
2022/03/23 08:18:04;;;;;;;15.77;13.60;;;;;;;28.29;17.17;101746.13;5051129;28;20057;-53
2022/03/23 08:20:36;;;;;;;14.10;12.63;;;;;;;28.86;16.72;101741.69;5046974;28;20076;-52
2022/03/23 08:23:05;;;;;;;14.02;12.70;;;;;;;29.40;16.28;101750.22;5052568;28;20057;-51
2022/03/23 08:25:33;;;;;;;15.18;13.77;;;;;;;29.87;15.70;101736.56;5045859;28;20060;-53
2022/03/23 08:28:01;;;;;;;14.57;13.20;;;;;;;30.37;15.68;101736.31;5039695;28;20055;-52
2022/03/23 08:30:29;;;;;;;14.07;12.68;;;;;;;31.12;14.97;101746.38;5050724;28;20060;-56
2022/03/23 08:32:56;;;;;;;14.65;13.15;;;;;;;31.65;15.11;101749.94;5037441;28;20058;-49
2022/03/23 08:35:25;;;;;;;15.02;13.65;;;;;;;32.27;14.00;101747.91;5044099;28;20053;-53
2022/03/23 08:37:53;;;;;;;14.43;13.02;;;;;;;32.97;13.42;101738.53;5031900;28;20054;-55
2022/03/23 08:40:24;;;;;;;14.20;12.80;;;;;;;33.51;13.31;101732.56;5041456;28;20041;-53
2022/03/23 08:42:51;;;;;;;13.52;12.20;;;;;;;33.76;13.17;101737.03;5047470;28;20053;-50
2022/03/23 08:45:19;;;;;;;14.43;12.90;;;;;;;34.14;13.06;101727.94;5040058;28;20053;-55
2022/03/23 08:47:48;;;;;;;13.07;11.97;;;;;;;34.53;13.15;101737.78;5042227;28;20045;-51
2022/03/23 08:50:16;;;;;;;13.90;12.48;;;;;;;34.76;13.15;101734.72;5046364;28;20524;-54
2022/03/23 08:52:44;;;;;;;14.63;12.82;;;;;;;35.29;12.49;101728.78;5049846;28;20049;-53
2022/03/23 08:55:17;;;;;;;14.80;13.40;;;;;;;35.70;12.00;101729.28;5048281;28;20405;-55
2022/03/23 08:57:44;;;;;;;14.43;12.93;;;;;;;35.88;12.36;101732.47;5038017;28;20056;-56
2022/03/23 09:00:13;;;;;;;13.73;12.50;;;;;;;36.04;12.19;101733.66;5046094;28;20053;-56
2022/03/23 09:02:40;;;;;;;15.27;13.27;;;;;;;36.48;11.70;101728.94;5043861;28;20125;-55
2022/03/23 09:05:11;;;;;;;14.27;12.95;;;;;;;36.60;11.67;101721.47;5043002;28;20045;-53
2022/03/23 09:07:39;;;;;;;12.68;11.57;;;;;;;37.12;11.48;101730.94;5051036;28;20088;-55
2022/03/23 09:10:08;;;;;;;13.63;12.43;;;;;;;37.22;11.05;101729.72;5050600;28;20049;-56
2022/03/23 09:12:37;;;;;;;13.88;12.55;;;;;;;37.37;10.77;101721.28;5053814;28;20046;-53
2022/03/23 09:15:06;;;;;;;13.55;12.13;;;;;;;37.45;10.83;101727.66;5054446;28;20052;-54
2022/03/23 09:17:34;;;;;;;14.07;12.48;;;;;;;37.90;10.96;101720.53;5051249;28;20627;-54
2022/03/23 09:20:04;;;;;;;13.73;12.43;;;;;;;38.20;10.53;101716.03;5054344;28;20049;-55
2022/03/23 09:22:34;;;;;;;14.68;13.23;;;;;;;38.49;10.17;101723.56;5053283;28;20406;-57
2022/03/23 09:25:03;;;;;;;13.98;12.65;;;;;;;38.77;10.64;101721.56;5054730;28;20048;-53
2022/03/23 09:27:33;;;;;;;14.32;12.88;;;;;;;39.07;10.28;101719.84;5047603;28;20050;-56
2022/03/23 09:30:01;;;;;;;13.85;12.48;;;;;;;39.53;9.82;101716.13;5042811;28;20576;-55
2022/03/23 09:32:29;;;;;;;13.57;12.27;;;;;;;39.75;9.54;101716.75;5044701;28;20064;-56
2022/03/23 09:34:56;;;;;;;13.73;12.52;;;;;;;40.03;9.38;101719.59;5048679;28;20518;-56
2022/03/23 09:40:10;;;;;;;13.15;11.85;;;;;;;40.05;9.87;101713.25;5047887;28;20052;-55
2022/03/23 09:42:38;;;;;;;13.95;12.57;;;;;;;40.47;9.12;101715.38;5047844;28;20978;-57
2022/03/23 09:45:08;;;;;;;12.95;11.75;;;;;;;40.70;9.04;101711.66;5049374;28;20071;-56
2022/03/23 09:47:37;;;;;;;13.20;12.05;;;;;;;40.95;8.99;101709.53;5053998;28;20156;-56
2022/03/23 09:50:06;;;;;;;13.80;12.10;;;;;;;41.27;8.98;101704.13;5037305;28;20052;-57
2022/03/23 09:52:34;;;;;;;13.30;11.90;;;;;;;41.45;8.46;101703.13;5041973;28;20482;-52
2022/03/23 09:55:01;;;;;;;13.05;11.77;;;;;;;41.57;8.55;101704.94;5040703;28;20056;-54
2022/03/23 09:57:28;;;;;;;13.80;12.50;;;;;;;41.65;8.77;101699.53;5044889;28;20061;-52
2022/03/23 09:59:56;;;;;;;13.23;11.90;;;;;;;42.12;8.11;101697.69;5009975;28;20079;-53
2022/03/23 10:03:00;;;;;;;13.95;12.65;;;;;;;42.19;8.17;101697.28;5010576;28;20407;-54
2022/03/23 10:05:58;;;;;;;12.73;11.63;;;;;;;42.41;7.97;101690.94;5003233;28;20053;-54
2022/03/23 10:09:12;;;;;;;13.65;12.45;;;;;;;42.20;7.79;101695.97;5007838;28;20506;-57
2022/03/23 10:12:27;;;;;;;13.88;12.57;;;;;;;42.45;7.36;101690.78;5010381;28;20062;-54
2022/03/23 10:15:27;;;;;;;12.50;11.45;;;;;;;42.74;6.77;101696.50;5010710;28;20069;-53
2022/03/23 10:18:25;;;;;;;12.52;11.35;;;;;;;43.14;6.43;101682.38;4994396;28;20046;-55
2022/03/23 10:20:54;;;;;;;12.90;11.80;;;;;;;43.19;7.13;101678.69;5004776;28;20061;-57
2022/03/23 10:23:22;;;;;;;12.75;11.65;;;;;;;43.69;6.45;101680.56;5010311;28;20050;-55
2022/03/23 10:25:50;;;;;;;12.18;11.18;;;;;;;43.43;6.40;101683.47;5012402;28;20065;-54
2022/03/23 10:28:19;;;;;;;12.52;11.38;;;;;;;43.70;6.17;101685.09;5010917;28;20054;-56
2022/03/23 10:30:48;;;;;;;12.23;11.02;;;;;;;44.11;5.21;101679.84;5008487;28;20164;-54
2022/03/23 10:33:20;;;;;;;10.25;9.45;;;;;;;44.27;4.49;101677.53;5010697;28;20046;-54
2022/03/23 10:35:47;;;;;;;10.23;9.13;;;;;;;44.07;4.28;101678.50;5013285;28;20056;-55
2022/03/23 10:38:18;;;;;;;10.48;9.68;;;;;;;43.43;4.63;101678.44;5004569;28;20042;-54
2022/03/23 10:40:47;;;;;;;11.68;10.48;;;;;;;43.63;5.05;101682.63;5009978;28;20410;-54
2022/03/23 10:43:17;;;;;;;10.07;9.18;;;;;;;43.75;4.63;101663.81;5011129;28;20057;-58
2022/03/23 10:45:44;;;;;;;10.70;9.35;;;;;;;43.99;4.63;101663.44;4998150;28;20080;-52
2022/03/23 10:48:14;;;;;;;9.13;8.43;;;;;;;43.84;5.17;101660.69;4995111;28;20046;-52
2022/03/23 10:50:52;;;;;;;9.70;8.70;;;;;;;44.18;4.40;101664.72;5012227;28;20050;-53
2022/03/23 10:53:32;;;;;;;8.82;8.07;;;;;;;44.13;4.28;101655.84;5012139;28;21124;-52
2022/03/23 10:56:00;;;;;;;10.13;9.05;;;;;;;44.10;4.54;101656.88;4999066;28;20055;-53
2022/03/23 11:02:00;;;;;;;9.60;8.80;;;;;;;44.24;4.69;101655.91;4864407;28;1540558;-52
2022/03/23 11:04:29;;;;;;;10.63;9.73;;;;;;;44.35;5.02;101649.28;5044351;28;20075;-53
2022/03/23 11:06:57;;;;;;;9.27;8.38;;;;;;;44.40;5.14;101654.41;5051227;28;20048;-55
2022/03/23 11:17:51;;;;;;;10.68;9.50;;;;;;;44.01;4.71;101642.38;5055789;28;20056;-50
2022/03/23 11:20:18;;;;;;;10.90;9.82;;;;;;;44.40;4.80;101642.66;5048480;28;20119;-54
2022/03/23 11:22:46;;;;;;;11.73;10.63;;;;;;;44.65;4.79;101645.97;5045722;28;20053;-51
2022/03/23 11:25:15;;;;;;;10.25;9.18;;;;;;;44.51;4.44;101630.97;5047218;28;20052;-55
2022/03/23 11:27:43;;;;;;;11.45;9.98;;;;;;;44.52;4.28;101635.53;5042670;28;20045;-54
2022/03/23 11:30:11;;;;;;;10.27;9.38;;;;;;;44.34;4.27;101638.88;5042281;28;20056;-56
2022/03/23 11:32:41;;;;;;;10.68;9.55;;;;;;;43.70;4.83;101635.19;5036299;28;20045;-56
2022/03/23 11:35:09;;;;;;;11.95;10.82;;;;;;;43.72;4.29;101639.25;5045002;28;20057;-55
2022/03/23 11:37:38;;;;;;;11.45;10.48;;;;;;;43.42;4.60;101629.88;5035771;28;20049;-55
2022/03/23 11:40:07;;;;;;;13.38;10.60;;;;;;;42.45;4.72;101638.06;5038789;28;20375;-57
2022/03/23 11:42:35;;;;;;;10.80;9.82;;;;;;;42.71;5.38;101632.25;5039313;28;20058;-56
2022/03/23 11:45:03;;;;;;;10.93;9.93;;;;;;;43.13;5.04;101634.63;5037885;28;20049;-56
2022/03/23 11:47:38;;;;;;;10.85;9.95;;;;;;;43.29;5.28;101624.41;5043258;28;20458;-57
2022/03/23 11:50:19;;;;;;;10.73;9.82;;;;;;;43.61;5.42;101626.56;5038601;28;20047;-57
2022/03/23 11:52:58;;;;;;;11.52;10.63;;;;;;;43.72;4.66;101623.75;5034957;28;20061;-55
2022/03/23 11:55:39;;;;;;;10.80;9.82;;;;;;;43.40;5.14;101623.72;5037098;28;20045;-53